Time;durP1;ratioP1;P1;durP2;ratioP2;P2;SDS_P1;SDS_P2;PMS_P1;PMS_P2;Temp;Humidity;BMP_temperature;BMP_pressure;BME280_temperature;BME280_humidity;BME280_pressure;Samples;Min_cycle;Max_cycle;Signal;HPM_P1;HPM_P2
2021/05/01 00:03:13;;;;;;;11.87;5.20;;;;;;;17.17;100.00;94538.75;10371093;28;20455;-82
2021/05/01 00:08:14;;;;;;;9.43;4.77;;;;;;;17.01;100.00;94541.94;10372148;28;20499;-82
2021/05/01 00:13:14;;;;;;;12.35;5.97;;;;;;;17.00;100.00;94539.56;10371539;28;20405;-83
2021/05/01 00:18:15;;;;;;;10.23;4.40;;;;;;;16.83;100.00;94538.41;10371611;28;20030;-83
2021/05/01 00:23:15;;;;;;;13.43;4.78;;;;;;;16.87;100.00;94544.78;10353879;28;20059;-83
2021/05/01 00:28:16;;;;;;;13.40;5.13;;;;;;;16.83;100.00;94551.16;10353996;28;20417;-83
2021/05/01 00:33:16;;;;;;;22.63;6.15;;;;;;;16.73;100.00;94557.69;10370862;28;20022;-82
2021/05/01 00:38:17;;;;;;;16.97;6.30;;;;;;;16.64;100.00;94565.03;10370623;28;20030;-82
2021/05/01 00:43:17;;;;;;;10.65;5.32;;;;;;;16.36;100.00;94554.41;10369964;28;20285;-82
2021/05/01 00:48:18;;;;;;;20.02;5.88;;;;;;;16.21;100.00;94561.88;10371203;28;20024;-82
2021/05/01 00:53:18;;;;;;;13.02;5.60;;;;;;;16.44;100.00;94558.25;10370965;28;20030;-83
2021/05/01 00:58:20;;;;;;;28.53;6.97;;;;;;;16.29;100.00;94557.56;10370120;28;20092;-82
2021/05/01 01:03:22;;;;;;;17.95;6.15;;;;;;;16.46;100.00;94553.31;10369708;28;20034;-82
2021/05/01 01:08:22;;;;;;;20.27;6.05;;;;;;;16.45;100.00;94544.38;10369674;28;20026;-83
2021/05/01 01:13:23;;;;;;;20.50;6.97;;;;;;;16.32;100.00;94550.72;10369212;28;20030;-83
2021/05/01 01:18:24;;;;;;;23.45;7.57;;;;;;;16.35;100.00;94544.66;10369787;28;20440;-83
2021/05/01 01:23:24;;;;;;;14.33;5.83;;;;;;;16.48;100.00;94535.63;10368832;28;20026;-83
2021/05/01 01:28:26;;;;;;;21.33;6.40;;;;;;;16.53;100.00;94532.75;10369334;28;20273;-82
2021/05/01 01:33:27;;;;;;;20.92;8.40;;;;;;;16.58;100.00;94532.59;10368928;28;20080;-82
2021/05/01 01:38:27;;;;;;;14.83;6.20;;;;;;;16.61;100.00;94535.81;10368692;28;20084;-84
2021/05/01 01:43:28;;;;;;;16.80;6.67;;;;;;;16.52;100.00;94533.06;10352149;28;20293;-83
2021/05/01 01:48:28;;;;;;;16.13;6.90;;;;;;;16.43;100.00;94530.31;10368932;28;20509;-83
2021/05/01 01:53:29;;;;;;;14.25;5.53;;;;;;;16.30;100.00;94528.53;10367140;28;20037;-82
2021/05/01 01:58:29;;;;;;;21.70;6.80;;;;;;;16.30;100.00;94531.25;10366648;28;20033;-82
2021/05/01 02:03:30;;;;;;;19.00;5.80;;;;;;;16.29;100.00;94524.25;10368094;28;20024;-83
2021/05/01 02:08:30;;;;;;;17.95;6.40;;;;;;;16.31;100.00;94539.09;10369599;28;20034;-83
2021/05/01 02:13:31;;;;;;;17.07;6.40;;;;;;;16.27;100.00;94551.66;10374257;28;20091;-83
2021/05/01 02:18:31;;;;;;;15.93;6.75;;;;;;;16.20;100.00;94549.41;10357805;28;20029;-83
2021/05/01 02:23:32;;;;;;;19.60;6.90;;;;;;;16.08;100.00;94562.75;10375773;28;20021;-84
2021/05/01 02:28:32;;;;;;;17.52;6.38;;;;;;;15.87;100.00;94573.34;10370863;28;20034;-83
2021/05/01 02:33:33;;;;;;;24.60;6.93;;;;;;;15.98;100.00;94557.59;10368998;28;20108;-82
2021/05/01 02:38:33;;;;;;;19.45;7.25;;;;;;;16.00;100.00;94549.94;10369370;28;20281;-83
2021/05/01 02:43:33;;;;;;;16.27;6.13;;;;;;;15.98;100.00;94538.63;10368041;28;20499;-81
2021/05/01 02:48:34;;;;;;;14.60;6.28;;;;;;;15.72;100.00;94536.56;10373075;28;20144;-82
2021/05/01 02:53:34;;;;;;;16.13;6.50;;;;;;;15.68;100.00;94547.22;10374495;28;20472;-82
2021/05/01 02:58:35;;;;;;;17.43;5.90;;;;;;;15.76;100.00;94553.78;10373751;28;20065;-82
2021/05/01 03:03:35;;;;;;;17.47;6.27;;;;;;;15.71;100.00;94554.72;10374019;28;20287;-82
2021/05/01 03:08:35;;;;;;;19.57;6.93;;;;;;;15.56;100.00;94546.97;10375041;28;20049;-83
2021/05/01 03:13:36;;;;;;;14.43;6.37;;;;;;;15.49;100.00;94568.28;10375848;28;20113;-82
2021/05/01 03:18:36;;;;;;;19.90;6.57;;;;;;;15.41;100.00;94556.28;10373206;28;20401;-83
2021/05/01 03:23:36;;;;;;;26.97;7.00;;;;;;;15.33;100.00;94565.94;10374145;28;20313;-83
2021/05/01 03:28:37;;;;;;;21.60;7.17;;;;;;;15.21;100.00;94569.19;10374178;28;20101;-83
2021/05/01 03:33:37;;;;;;;13.18;6.50;;;;;;;15.18;100.00;94591.47;10373283;28;20672;-83
2021/05/01 03:38:38;;;;;;;15.77;7.80;;;;;;;15.30;100.00;94577.38;10373325;28;20034;-82
2021/05/01 03:43:38;;;;;;;29.20;7.35;;;;;;;15.36;100.00;94569.94;10372404;28;20408;-82
2021/05/01 03:48:38;;;;;;;14.73;6.97;;;;;;;15.37;100.00;94568.84;10372643;28;20030;-83
2021/05/01 03:53:41;;;;;;;27.20;6.88;;;;;;;15.45;100.00;94570.03;10372797;28;20041;-82
2021/05/01 03:58:42;;;;;;;15.65;6.65;;;;;;;15.45;100.00;94572.72;10372391;28;20030;-83
2021/05/01 04:03:43;;;;;;;22.33;7.32;;;;;;;15.58;100.00;94568.34;10371894;28;20428;-83
2021/05/01 04:08:43;;;;;;;18.60;6.30;;;;;;;15.67;100.00;94585.44;10370128;28;20087;-82
2021/05/01 04:13:49;;;;;;;23.93;5.93;;;;;;;15.68;100.00;94587.88;10366163;28;20049;-83
2021/05/01 04:18:50;;;;;;;21.15;6.93;;;;;;;15.79;100.00;94593.00;10350526;28;20034;-81
2021/05/01 04:23:51;;;;;;;11.45;5.78;;;;;;;15.69;100.00;94591.38;10370624;28;20108;-83
2021/05/01 04:28:52;;;;;;;10.35;4.40;;;;;;;15.74;100.00;94591.25;10370864;28;20806;-83
2021/05/01 04:33:53;;;;;;;14.07;4.80;;;;;;;15.73;100.00;94578.78;10369649;28;20030;-82
2021/05/01 04:38:53;;;;;;;15.20;4.90;;;;;;;15.85;100.00;94578.25;10369556;28;20025;-83
2021/05/01 04:43:54;;;;;;;15.00;4.63;;;;;;;16.04;100.00;94567.19;10371170;28;20302;-83
2021/05/01 04:48:54;;;;;;;13.20;5.10;;;;;;;16.16;100.00;94585.56;10364643;28;20029;-77
2021/05/01 04:53:54;;;;;;;12.07;4.80;;;;;;;16.47;100.00;94585.56;10345887;28;20469;-77
2021/05/01 04:58:55;;;;;;;19.27;4.27;;;;;;;16.64;100.00;94592.16;10363786;28;20038;-77
2021/05/01 05:03:55;;;;;;;15.98;4.55;;;;;;;17.01;100.00;94592.72;10361366;28;20037;-77
2021/05/01 05:08:56;;;;;;;12.48;5.68;;;;;;;17.21;100.00;94592.09;10361753;28;20101;-76
2021/05/01 05:13:57;;;;;;;13.20;4.63;;;;;;;17.54;100.00;94604.41;10361985;28;20032;-77
2021/05/01 05:18:57;;;;;;;10.33;5.37;;;;;;;18.23;100.00;94613.63;10362078;28;20025;-77
2021/05/01 05:23:57;;;;;;;21.80;5.90;;;;;;;19.01;94.01;94603.53;10361112;28;20026;-77
2021/05/01 05:28:58;;;;;;;15.60;6.53;;;;;;;19.60;86.08;94597.94;10361468;28;20352;-78
2021/05/01 05:33:58;;;;;;;15.60;5.03;;;;;;;19.97;83.19;94594.59;10361827;28;20033;-77
2021/05/01 05:38:58;;;;;;;15.20;4.80;;;;;;;19.97;84.51;94600.06;10362691;28;20026;-78
2021/05/01 05:44:00;;;;;;;17.67;4.13;;;;;;;19.75;88.53;94607.44;10366853;28;20132;-77
2021/05/01 05:49:00;;;;;;;17.92;4.40;;;;;;;19.74;91.51;94607.78;10370266;28;20041;-77
2021/05/01 05:54:01;;;;;;;20.08;5.03;;;;;;;20.98;88.48;94598.69;10370129;28;20030;-77
2021/05/01 05:59:02;;;;;;;18.27;3.92;;;;;;;22.33;74.39;94607.66;10370679;28;20172;-77
2021/05/01 06:04:08;;;;;;;9.23;3.75;;;;;;;23.87;63.49;94601.41;10370253;28;20021;-78
2021/05/01 06:09:10;;;;;;;11.93;4.32;;;;;;;25.21;53.31;94595.47;10352289;28;20664;-79
2021/05/01 06:14:15;;;;;;;11.48;3.60;;;;;;;26.08;50.81;94591.91;10370072;28;20034;-78
2021/05/01 06:19:15;;;;;;;8.00;3.08;;;;;;;26.67;46.03;94597.63;10352218;28;20072;-77
2021/05/01 06:24:17;;;;;;;8.35;3.70;;;;;;;26.91;45.95;94590.78;10369463;28;20025;-78
2021/05/01 06:29:18;;;;;;;14.73;3.47;;;;;;;28.18;43.98;94583.22;10368699;28;20121;-77
2021/05/01 06:34:18;;;;;;;18.40;3.45;;;;;;;28.85;40.73;94572.69;10367903;28;20033;-78
2021/05/01 06:39:19;;;;;;;11.65;3.55;;;;;;;29.07;41.60;94551.31;10367255;28;20034;-78
2021/05/01 06:44:34;;;;;;;9.13;2.85;;;;;;;29.43;40.22;94551.25;10366485;28;20505;-78
2021/05/01 06:49:57;;;;;;;16.25;3.80;;;;;;;29.02;37.85;94557.25;10366703;28;20034;-78
2021/05/01 06:55:03;;;;;;;10.65;3.08;;;;;;;28.78;41.11;94565.94;10367452;28;20792;-78
2021/05/01 07:00:08;;;;;;;13.75;3.17;;;;;;;27.92;39.24;94582.31;10350492;28;20073;-77
2021/05/01 07:05:18;;;;;;;13.52;3.80;;;;;;;28.17;41.37;94600.97;10382450;28;20021;-80
2021/05/01 07:10:19;;;;;;;10.55;3.35;;;;;;;28.32;40.40;94601.81;10368170;28;20145;-78
2021/05/01 07:15:20;;;;;;;15.87;3.50;;;;;;;29.30;40.36;94617.31;10367740;28;20026;-79
2021/05/01 07:20:22;;;;;;;15.48;3.13;;;;;;;29.40;40.27;94624.84;10367251;28;20204;-78
2021/05/01 07:25:22;;;;;;;13.73;3.67;;;;;;;29.35;41.88;94628.00;10366566;28;20384;-78
2021/05/01 07:30:27;;;;;;;7.88;3.13;;;;;;;29.45;40.09;94643.03;10367640;28;20026;-79
2021/05/01 07:35:29;;;;;;;10.38;3.70;;;;;;;30.26;39.34;94634.09;10367336;28;20066;-79
2021/05/01 07:40:30;;;;;;;11.63;4.13;;;;;;;30.20;38.37;94632.94;10368786;28;20033;-79
2021/05/01 07:45:30;;;;;;;13.70;3.78;;;;;;;30.68;38.88;94633.09;10367428;28;20069;-79
2021/05/01 07:50:31;;;;;;;19.20;4.03;;;;;;;30.41;39.18;94643.94;10366970;28;20044;-79
2021/05/01 07:55:31;;;;;;;14.73;4.23;;;;;;;30.03;39.82;94654.00;10366649;28;20117;-79
2021/05/01 08:00:32;;;;;;;16.88;4.28;;;;;;;30.36;37.06;94649.88;10366250;28;20033;-79
2021/05/01 08:05:33;;;;;;;9.57;4.07;;;;;;;30.44;37.59;94634.81;10366000;28;20030;-80
2021/05/01 08:10:34;;;;;;;10.40;3.15;;;;;;;30.63;35.82;94641.88;10367228;28;20137;-78
2021/05/01 08:15:34;;;;;;;9.17;3.37;;;;;;;30.01;38.97;94635.00;10365761;28;20152;-79
2021/05/01 08:20:35;;;;;;;10.30;3.43;;;;;;;29.56;40.78;94629.16;10364802;28;20290;-78
2021/05/01 08:25:36;;;;;;;11.50;4.32;;;;;;;30.09;36.31;94633.78;10363132;28;20033;-79
2021/05/01 08:30:36;;;;;;;12.17;4.13;;;;;;;31.49;34.84;94636.84;10362252;28;20033;-79
2021/05/01 08:35:37;;;;;;;19.35;5.38;;;;;;;31.68;33.81;94618.84;10364606;28;21262;-79
2021/05/01 08:40:37;;;;;;;10.63;3.60;;;;;;;31.73;34.70;94596.16;10364020;28;20025;-79
2021/05/01 08:45:38;;;;;;;13.50;3.88;;;;;;;31.77;33.44;94610.00;10346664;28;20436;-80
2021/05/01 08:50:51;;;;;;;15.65;4.28;;;;;;;31.31;34.02;94603.69;10364736;28;20076;-78
2021/05/01 08:55:51;;;;;;;9.45;3.78;;;;;;;31.45;34.64;94595.22;10347693;28;20045;-78
2021/05/01 09:00:52;;;;;;;13.53;3.50;;;;;;;31.97;33.70;94588.75;10364271;28;20440;-78
2021/05/01 09:05:56;;;;;;;17.90;3.28;;;;;;;32.12;33.88;94580.22;10365086;28;20022;-79
2021/05/01 09:11:02;;;;;;;13.60;3.83;;;;;;;31.08;34.19;94571.00;10365290;28;20029;-79
2021/05/01 09:16:07;;;;;;;9.85;3.28;;;;;;;30.78;34.38;94566.84;10364748;28;20049;-79
2021/05/01 09:21:12;;;;;;;10.73;3.17;;;;;;;30.07;35.32;94571.63;10364581;28;20045;-79
2021/05/01 09:26:13;;;;;;;11.55;3.00;;;;;;;28.81;37.78;94587.28;10363947;28;20453;-79
2021/05/01 09:31:15;;;;;;;14.27;3.90;;;;;;;28.47;41.18;94582.09;10363937;28;20045;-79
2021/05/01 09:36:19;;;;;;;12.55;3.05;;;;;;;28.50;40.06;94574.97;10363555;28;20104;-78
2021/05/01 09:41:25;;;;;;;19.00;4.13;;;;;;;28.92;38.73;94578.97;10373119;28;20036;-78
2021/05/01 09:46:25;;;;;;;12.05;4.60;;;;;;;28.87;40.05;94584.13;10371858;28;20049;-78
2021/05/01 09:51:30;;;;;;;12.07;3.10;;;;;;;28.75;40.25;94569.50;10400609;28;20029;-78
2021/05/01 09:56:30;;;;;;;13.48;4.05;;;;;;;29.01;40.94;94563.97;10386282;28;20037;-78
2021/05/01 10:01:31;;;;;;;11.73;2.87;;;;;;;29.01;36.46;94553.69;10358924;28;20087;-78
2021/05/01 10:06:32;;;;;;;17.63;4.37;;;;;;;30.21;37.19;94562.44;10358824;28;20273;-77
2021/05/01 10:11:33;;;;;;;13.57;3.40;;;;;;;31.64;34.97;94552.19;10357976;28;20049;-76
2021/05/01 10:16:34;;;;;;;9.30;2.85;;;;;;;33.65;31.78;94536.44;10358205;28;20026;-75
2021/05/01 10:21:38;;;;;;;15.85;2.85;;;;;;;34.85;29.96;94529.91;10358186;28;20032;-75
2021/05/01 10:26:44;;;;;;;18.25;3.35;;;;;;;33.95;28.39;94523.56;10340992;28;20021;-76
2021/05/01 10:31:53;;;;;;;19.02;3.80;;;;;;;35.18;25.96;94499.16;10367821;28;20473;-77
2021/05/01 10:37:00;;;;;;;8.40;2.60;;;;;;;35.90;25.86;94496.44;10406374;28;20084;-76
2021/05/01 10:42:02;;;;;;;19.75;3.13;;;;;;;34.54;27.87;94499.53;10387108;28;20496;-77
2021/05/01 10:47:10;;;;;;;13.50;3.15;;;;;;;32.50;27.69;94489.13;10365229;28;20033;-78
2021/05/01 10:52:20;;;;;;;14.63;3.10;;;;;;;32.11;30.67;94487.69;10364008;28;20400;-77
2021/05/01 10:57:21;;;;;;;15.95;3.72;;;;;;;31.47;30.67;94487.28;10364827;28;20912;-77
2021/05/01 11:02:36;;;;;;;13.18;3.45;;;;;;;31.02;31.64;94485.41;10364103;28;20084;-77
2021/05/01 11:07:51;;;;;;;12.60;2.70;;;;;;;30.62;31.78;94490.50;10364312;28;20072;-77
2021/05/01 11:12:54;;;;;;;14.23;2.83;;;;;;;30.28;30.83;94490.31;10363929;28;20424;-77
2021/05/01 11:18:07;;;;;;;19.55;3.22;;;;;;;30.10;31.52;94491.25;10346261;28;20021;-76
2021/05/01 11:23:13;;;;;;;9.88;3.13;;;;;;;29.82;29.88;94481.88;10363802;28;20018;-77
2021/05/01 11:28:16;;;;;;;12.27;2.92;;;;;;;29.74;30.96;94482.31;10363272;28;20572;-76
2021/05/01 11:33:20;;;;;;;17.63;3.97;;;;;;;29.74;28.32;94476.78;10378966;28;20025;-77
2021/05/01 11:38:53;;;;;;;13.90;2.85;;;;;;;29.80;28.37;94462.09;10402582;28;20056;-76
2021/05/01 11:43:54;;;;;;;15.63;3.08;;;;;;;29.70;30.76;94459.41;10378971;28;20051;-76
2021/05/01 11:49:02;;;;;;;18.85;2.85;;;;;;;29.28;27.25;94437.81;10403167;28;20022;-76
2021/05/01 11:54:15;;;;;;;17.20;3.05;;;;;;;29.26;28.36;94420.03;10402392;28;20037;-77
2021/05/01 11:59:17;;;;;;;25.77;4.68;;;;;;;29.35;28.67;94400.22;10402428;28;20037;-77
2021/05/01 12:04:19;;;;;;;21.13;2.80;;;;;;;29.44;27.71;94390.31;10402943;28;20025;-77
2021/05/01 12:09:27;;;;;;;19.10;4.35;;;;;;;29.57;28.53;94382.31;10402076;28;20118;-77
2021/05/01 12:14:29;;;;;;;22.30;5.40;;;;;;;29.67;28.28;94367.59;10402096;28;20037;-77
2021/05/01 12:19:29;;;;;;;21.23;7.18;;;;;;;29.41;30.19;94373.69;10385054;28;20029;-77
2021/05/01 12:24:32;;;;;;;22.57;3.03;;;;;;;28.96;27.25;94357.66;10402158;28;20732;-77
2021/05/01 12:29:34;;;;;;;11.88;3.83;;;;;;;28.93;26.61;94347.41;10401495;28;20496;-78
2021/05/01 12:34:47;;;;;;;22.67;5.07;;;;;;;29.00;27.68;94358.44;10375184;28;20050;-78
2021/05/01 12:39:48;;;;;;;13.77;3.08;;;;;;;29.14;27.24;94360.38;10360955;28;20022;-78
2021/05/01 12:44:50;;;;;;;15.57;2.38;;;;;;;28.84;27.59;94360.88;10359900;28;20069;-78
2021/05/01 12:50:23;;;;;;;16.98;3.10;;;;;;;28.39;30.00;94364.88;10359598;28;20022;-78
2021/05/01 12:55:23;;;;;;;16.67;2.53;;;;;;;28.41;28.39;94370.03;10359202;28;20092;-77
2021/05/01 13:00:27;;;;;;;11.27;2.53;;;;;;;28.54;27.82;94364.88;10359565;28;20025;-78
2021/05/01 13:05:29;;;;;;;13.40;2.90;;;;;;;28.69;28.78;94365.66;10359383;28;20029;-78
2021/05/01 13:10:31;;;;;;;15.32;2.88;;;;;;;28.67;28.59;94368.81;10359879;28;20037;-78
2021/05/01 13:15:57;;;;;;;13.35;2.90;;;;;;;28.48;28.91;94354.22;10342534;28;20034;-78
2021/05/01 13:21:06;;;;;;;17.92;3.72;;;;;;;28.43;28.37;94343.56;10349839;28;20069;-78
2021/05/01 13:26:19;;;;;;;17.20;2.70;;;;;;;28.18;29.20;94345.59;10359308;28;20029;-78
2021/05/01 13:31:22;;;;;;;14.52;2.83;;;;;;;28.27;29.32;94340.44;10359474;28;20033;-78
2021/05/01 13:36:23;;;;;;;14.88;2.95;;;;;;;28.23;28.90;94337.69;10357316;28;20109;-77
2021/05/01 13:41:23;;;;;;;11.90;2.40;;;;;;;27.82;29.46;94340.03;10359045;28;20026;-77
2021/05/01 13:46:24;;;;;;;14.07;3.40;;;;;;;27.87;30.04;94329.38;10396932;28;20834;-76
2021/05/01 13:51:32;;;;;;;18.77;2.90;;;;;;;28.00;28.76;94337.31;10398878;28;20522;-78
2021/05/01 13:56:33;;;;;;;22.30;2.95;;;;;;;28.41;29.61;94326.59;10399993;28;20100;-78
2021/05/01 14:01:44;;;;;;;18.80;3.03;;;;;;;28.33;29.86;94316.75;10399211;28;20112;-79
2021/05/01 14:06:45;;;;;;;19.50;3.20;;;;;;;28.35;29.61;94324.63;10387668;28;20026;-78
2021/05/01 14:11:45;;;;;;;14.60;2.55;;;;;;;28.08;30.67;94305.75;10406650;28;20034;-78
2021/05/01 14:17:06;;;;;;;15.00;3.50;;;;;;;27.77;30.50;94324.66;10406830;28;20095;-77
2021/05/01 14:22:10;;;;;;;13.90;2.67;;;;;;;27.58;30.57;94328.59;10406495;28;20026;-76
2021/05/01 14:27:11;;;;;;;17.08;2.83;;;;;;;27.71;32.82;94315.19;10405852;28;20032;-77
2021/05/01 14:32:16;;;;;;;12.07;2.88;;;;;;;27.49;31.24;94314.38;10399971;28;20048;-78
2021/05/01 14:37:17;;;;;;;14.40;2.90;;;;;;;27.33;33.44;94332.06;10364816;28;20109;-76
2021/05/01 14:42:19;;;;;;;17.20;2.75;;;;;;;27.19;31.97;94346.63;10363641;28;20421;-76
2021/05/01 14:47:25;;;;;;;10.18;3.33;;;;;;;27.01;32.73;94354.03;10364236;28;20080;-77
2021/05/01 14:52:34;;;;;;;13.05;2.67;;;;;;;26.78;31.97;94361.44;10345729;28;20073;-77
2021/05/01 14:57:37;;;;;;;14.50;2.70;;;;;;;26.50;32.89;94364.00;10363309;28;20034;-78
2021/05/01 15:02:45;;;;;;;16.27;3.22;;;;;;;25.94;33.41;94380.50;10363869;28;20120;-79
2021/05/01 15:07:54;;;;;;;9.40;2.60;;;;;;;25.70;34.50;94360.66;10364598;28;20026;-79
2021/05/01 15:13:05;;;;;;;12.30;2.63;;;;;;;25.20;35.89;94343.63;10363338;28;20026;-79
2021/05/01 15:18:22;;;;;;;10.80;2.45;;;;;;;25.03;38.27;94310.06;10363140;28;20936;-79
2021/05/01 15:23:25;;;;;;;12.50;2.60;;;;;;;24.79;40.37;94302.34;10362809;28;20199;-78
2021/05/01 15:28:27;;;;;;;20.25;3.90;;;;;;;24.33;42.26;94290.34;10362393;28;20026;-79
2021/05/01 15:33:32;;;;;;;12.55;2.83;;;;;;;24.19;42.55;94281.94;10380254;28;20061;-79
2021/05/01 15:38:32;;;;;;;12.43;2.70;;;;;;;24.11;41.81;94292.00;10405148;28;20698;-78
2021/05/01 15:43:35;;;;;;;13.32;2.28;;;;;;;24.36;39.86;94286.06;10403151;28;20050;-79
2021/05/01 15:48:35;;;;;;;13.25;2.40;;;;;;;24.43;39.10;94288.13;10401674;28;20032;-77
2021/05/01 15:53:36;;;;;;;16.23;3.27;;;;;;;24.40;37.95;94282.19;10384776;28;20037;-78
2021/05/01 15:58:36;;;;;;;13.30;2.63;;;;;;;24.32;38.36;94294.28;10384895;28;20056;-77
2021/05/01 16:03:37;;;;;;;11.43;2.15;;;;;;;24.29;39.49;94318.94;10402072;28;20021;-78
2021/05/01 16:08:37;;;;;;;13.32;2.58;;;;;;;24.16;39.46;94310.13;10401838;28;20033;-77
2021/05/01 16:13:40;;;;;;;11.97;2.13;;;;;;;24.10;39.81;94330.81;10401267;28;20534;-77
2021/05/01 16:18:41;;;;;;;22.45;2.63;;;;;;;23.96;41.03;94340.44;10401109;28;20025;-77
2021/05/01 16:23:41;;;;;;;15.67;3.43;;;;;;;23.81;42.17;94357.81;10401377;28;20029;-78
2021/05/01 16:28:41;;;;;;;20.73;3.63;;;;;;;23.75;42.58;94356.53;10400621;28;20546;-78
2021/05/01 16:33:42;;;;;;;9.67;2.77;;;;;;;23.54;43.69;94344.03;10383461;28;20112;-77
2021/05/01 16:38:42;;;;;;;6.13;1.87;;;;;;;23.47;44.95;94346.66;10360931;28;20037;-77
2021/05/01 16:43:42;;;;;;;16.87;2.57;;;;;;;23.45;44.73;94343.50;10361197;28;20300;-77
2021/05/01 16:48:43;;;;;;;14.40;2.55;;;;;;;23.12;46.75;94355.81;10360307;28;20084;-79
2021/05/01 16:53:43;;;;;;;14.20;2.67;;;;;;;23.15;47.24;94382.50;10360503;28;20034;-77
2021/05/01 16:58:44;;;;;;;12.70;3.38;;;;;;;23.29;48.67;94380.03;10344705;28;20453;-78
2021/05/01 17:03:44;;;;;;;13.63;2.97;;;;;;;23.07;49.59;94353.34;10362386;28;20124;-78
2021/05/01 17:08:45;;;;;;;7.28;1.92;;;;;;;22.99;45.98;94347.72;10361840;28;20030;-79
2021/05/01 17:13:46;;;;;;;15.77;2.78;;;;;;;22.68;47.40;94343.97;10360009;28;20026;-78
2021/05/01 17:18:46;;;;;;;9.38;2.13;;;;;;;22.70;44.77;94354.56;10365871;28;20038;-79
2021/05/01 17:23:47;;;;;;;15.20;3.27;;;;;;;22.78;44.46;94344.56;10361385;28;20033;-77
2021/05/01 17:28:47;;;;;;;11.00;2.60;;;;;;;22.89;46.69;94351.06;10373187;28;20064;-77
2021/05/01 17:33:48;;;;;;;10.83;2.83;;;;;;;22.81;49.13;94349.31;10384986;28;20301;-77
2021/05/01 17:38:48;;;;;;;11.48;2.95;;;;;;;22.78;47.62;94355.53;10367242;28;20144;-76
2021/05/01 17:43:48;;;;;;;17.45;3.28;;;;;;;22.68;48.38;94356.91;10369725;28;20042;-82
2021/05/01 17:48:49;;;;;;;21.73;4.27;;;;;;;22.71;49.03;94334.25;10372945;28;20018;-82
2021/05/01 17:53:49;;;;;;;16.43;3.97;;;;;;;22.78;50.48;94359.06;10373708;28;20405;-81
2021/05/01 17:58:50;;;;;;;12.30;3.97;;;;;;;22.75;51.28;94368.00;10371775;28;20294;-82
2021/05/01 18:03:50;;;;;;;15.88;4.20;;;;;;;22.74;49.12;94373.84;10371671;28;20275;-81
2021/05/01 18:08:51;;;;;;;13.47;3.90;;;;;;;22.82;48.69;94383.78;10410432;28;20025;-76
2021/05/01 18:13:51;;;;;;;14.97;3.70;;;;;;;22.78;50.53;94378.22;10409411;28;20771;-75
2021/05/01 18:18:51;;;;;;;13.55;2.92;;;;;;;22.72;56.41;94376.94;10391150;28;20288;-75
2021/05/01 18:23:52;;;;;;;17.60;4.37;;;;;;;22.53;57.67;94392.19;10409183;28;20029;-76
2021/05/01 18:28:52;;;;;;;11.47;3.47;;;;;;;22.46;59.29;94391.25;10409008;28;20022;-76
2021/05/01 18:33:53;;;;;;;13.18;3.17;;;;;;;22.36;62.98;94398.06;10408684;28;20376;-76
2021/05/01 18:38:53;;;;;;;15.80;3.85;;;;;;;22.30;66.60;94396.75;10408646;28;21109;-76
2021/05/01 18:43:53;;;;;;;12.20;3.13;;;;;;;22.12;67.06;94399.06;10405639;28;20045;-76
2021/05/01 18:48:54;;;;;;;11.90;2.67;;;;;;;22.10;68.42;94412.31;10381159;28;20104;-76
2021/05/01 18:53:55;;;;;;;15.43;3.17;;;;;;;22.00;71.64;94428.09;10407827;28;20280;-76
2021/05/01 18:58:55;;;;;;;9.37;2.33;;;;;;;21.94;71.16;94413.09;10407104;28;20114;-75
2021/05/01 19:03:56;;;;;;;13.53;3.10;;;;;;;21.96;70.55;94419.03;10405056;28;20033;-75
2021/05/01 19:08:56;;;;;;;8.68;2.42;;;;;;;21.89;70.49;94426.25;10406909;28;20027;-76
2021/05/01 19:14:02;;;;;;;13.48;2.60;;;;;;;21.81;72.37;94437.03;10407059;28;20104;-76
2021/05/01 19:19:06;;;;;;;12.43;3.17;;;;;;;21.79;70.49;94442.03;10407042;28;20038;-76
2021/05/01 19:24:06;;;;;;;18.45;3.20;;;;;;;21.65;73.41;94444.41;10406502;28;20108;-75
2021/05/01 19:29:07;;;;;;;11.25;3.50;;;;;;;21.56;72.61;94458.25;10388702;28;20400;-76
2021/05/01 19:34:08;;;;;;;12.38;2.55;;;;;;;21.49;74.50;94458.03;10406373;28;20100;-75
2021/05/01 19:39:09;;;;;;;12.35;2.53;;;;;;;21.28;74.64;94442.66;10406100;28;20399;-75
2021/05/01 19:44:12;;;;;;;11.32;3.08;;;;;;;21.19;81.08;94447.47;10406053;28;20048;-75
2021/05/01 19:49:12;;;;;;;12.65;3.13;;;;;;;21.08;81.09;94435.44;10405983;28;20028;-75
2021/05/01 19:54:13;;;;;;;13.07;3.40;;;;;;;20.78;84.12;94457.63;10405310;28;20037;-75
2021/05/01 19:59:13;;;;;;;11.53;3.00;;;;;;;20.79;85.49;94465.47;10405362;28;20463;-75
2021/05/01 20:04:14;;;;;;;16.07;2.80;;;;;;;20.65;86.94;94468.53;10401324;28;20363;-75
2021/05/01 20:09:15;;;;;;;13.68;3.05;;;;;;;20.63;89.98;94465.34;10364047;28;20367;-75
2021/05/01 20:14:16;;;;;;;12.98;3.42;;;;;;;20.58;91.08;94453.88;10363615;28;20378;-75
2021/05/01 20:19:17;;;;;;;17.17;3.78;;;;;;;20.34;93.42;94460.16;10346250;28;20044;-75
2021/05/01 20:24:18;;;;;;;9.05;2.95;;;;;;;20.24;91.31;94470.38;10363102;28;20433;-75
2021/05/01 20:29:18;;;;;;;12.60;3.08;;;;;;;20.11;94.96;94463.34;10363206;28;20030;-75
2021/05/01 20:34:21;;;;;;;17.23;3.50;;;;;;;20.21;97.98;94473.78;10362961;28;20026;-75
2021/05/01 20:39:21;;;;;;;16.50;5.20;;;;;;;20.40;96.19;94473.22;10396867;28;20029;-76
2021/05/01 20:44:21;;;;;;;7.82;2.90;;;;;;;20.31;96.25;94458.91;10402729;28;20068;-75
2021/05/01 20:49:22;;;;;;;8.90;2.77;;;;;;;20.31;97.02;94458.91;10400850;28;20473;-76
2021/05/01 20:54:23;;;;;;;13.48;3.15;;;;;;;20.29;100.00;94469.38;10401129;28;20033;-76
2021/05/01 20:59:23;;;;;;;17.27;3.07;;;;;;;20.23;100.00;94474.22;10400850;28;20060;-76
2021/05/01 21:04:24;;;;;;;11.00;2.70;;;;;;;19.84;98.85;94484.66;10400740;28;20274;-76
2021/05/01 21:09:24;;;;;;;11.30;4.27;;;;;;;20.03;98.21;94472.44;10400607;28;20029;-76
2021/05/01 21:14:25;;;;;;;13.73;3.20;;;;;;;19.84;100.00;94473.75;10400917;28;20029;-75
2021/05/01 21:19:25;;;;;;;11.82;3.45;;;;;;;19.81;99.03;94455.34;10374254;28;20026;-75
2021/05/01 21:24:26;;;;;;;16.63;3.17;;;;;;;19.78;100.00;94437.69;10359792;28;20397;-75
2021/05/01 21:29:26;;;;;;;7.75;2.83;;;;;;;19.76;100.00;94420.91;10359783;28;20276;-75
2021/05/01 21:34:27;;;;;;;10.65;2.83;;;;;;;19.67;100.00;94428.38;10359042;28;20022;-76
2021/05/01 21:39:27;;;;;;;17.93;4.60;;;;;;;19.77;100.00;94432.59;10358805;28;20485;-75
2021/05/01 21:44:27;;;;;;;12.17;3.23;;;;;;;19.79;100.00;94401.16;10356281;28;920921;-75
2021/05/01 21:49:28;;;;;;;15.40;2.97;;;;;;;19.84;100.00;94378.31;10401444;28;20163;-75
2021/05/01 21:54:29;;;;;;;10.50;3.20;;;;;;;19.62;100.00;94376.81;10401298;28;20032;-75
2021/05/01 21:59:29;;;;;;;11.88;3.63;;;;;;;19.55;100.00;94393.72;10402092;28;20396;-80
2021/05/01 22:04:29;;;;;;;17.23;3.77;;;;;;;19.50;100.00;94385.75;10387626;28;20031;-80
2021/05/01 22:09:30;;;;;;;13.88;3.03;;;;;;;19.53;100.00;94378.84;10404308;28;20759;-81
2021/05/01 22:14:33;;;;;;;15.95;4.32;;;;;;;19.60;100.00;94374.41;10403441;28;20829;-81
2021/05/01 22:19:39;;;;;;;12.50;3.20;;;;;;;19.61;100.00;94362.38;10402049;28;20063;-76
2021/05/01 22:24:40;;;;;;;26.02;6.07;;;;;;;19.52;100.00;94352.72;10411458;28;20048;-79
2021/05/01 22:29:41;;;;;;;17.48;3.60;;;;;;;19.58;100.00;94348.63;10392284;28;20096;-79
2021/05/01 22:34:41;;;;;;;12.85;3.53;;;;;;;19.63;100.00;94321.13;10410141;28;20021;-80
2021/05/01 22:39:42;;;;;;;8.43;3.17;;;;;;;19.67;99.19;94322.03;10408499;28;20108;-79
2021/05/01 22:44:43;;;;;;;13.63;2.73;;;;;;;19.56;100.00;94318.97;10405764;28;20053;-80
2021/05/01 22:49:43;;;;;;;15.32;3.30;;;;;;;19.42;96.34;94318.53;10408141;28;20349;-80
2021/05/01 22:54:44;;;;;;;13.23;2.38;;;;;;;19.36;100.00;94336.25;10407367;28;20076;-80
2021/05/01 22:59:45;;;;;;;10.82;3.95;;;;;;;19.40;100.00;94299.78;10408885;28;20052;-79
2021/05/01 23:04:46;;;;;;;9.25;2.92;;;;;;;19.37;100.00;94302.38;10406829;28;20033;-80